createdAt,value
2018-09-19T00:01:27.422Z,35.0
2018-09-19T00:11:26.439Z,28.3
2018-09-19T00:21:26.610Z,26.0
2018-09-19T00:31:27.252Z,29.5
2018-09-19T00:41:27.343Z,31.4
2018-09-19T00:51:27.543Z,30.7
2018-09-19T01:01:26.733Z,30.1
2018-09-19T01:11:25.870Z,24.6
2018-09-19T01:21:26.971Z,29.1
2018-09-19T01:31:26.431Z,28.9
2018-09-19T01:41:26.668Z,29.7
2018-09-19T01:51:25.531Z,25.6
2018-09-19T02:01:26.423Z,29.6
2018-09-19T02:11:27.197Z,25.8
2018-09-19T02:21:28.104Z,27.9
2018-09-19T02:31:27.135Z,27.2
2018-09-19T02:41:26.951Z,28.5
2018-09-19T02:51:27.540Z,27.0
2018-09-19T03:01:27.451Z,23.5
2018-09-19T03:11:28.942Z,29.9
2018-09-19T03:21:32.631Z,26.0
2018-09-19T03:31:26.486Z,25.8
2018-09-19T03:41:26.873Z,25.5
2018-09-19T03:51:27.352Z,26.9
2018-09-19T04:01:28.800Z,29.6
2018-09-19T04:11:27.003Z,27.9
2018-09-19T04:21:26.154Z,27.0
2018-09-19T04:31:27.512Z,27.2
2018-09-19T04:41:27.952Z,29.0
2018-09-19T04:51:26.695Z,27.5
2018-09-19T05:01:27.533Z,30.6
2018-09-19T05:11:27.010Z,33.5
2018-09-19T05:21:27.978Z,25.9
2018-09-19T05:31:27.487Z,32.7
2018-09-19T05:41:28.262Z,25.8
2018-09-19T05:51:27.107Z,28.7
2018-09-19T06:01:27.233Z,32.1
2018-09-19T06:11:26.275Z,31.8
2018-09-19T06:21:26.523Z,25.9
2018-09-19T06:31:26.657Z,28.8
2018-09-19T06:41:27.766Z,21.2
2018-09-19T06:51:26.165Z,20.5
2018-09-19T07:01:26.660Z,21.6
2018-09-19T07:11:26.837Z,20.3
2018-09-19T07:21:29.307Z,25.7
2018-09-19T07:31:26.534Z,13.1
2018-09-19T07:41:26.349Z,27.2
2018-09-19T07:51:26.877Z,26.8
2018-09-19T08:01:25.923Z,13.8
2018-09-19T08:11:28.393Z,15.3
2018-09-19T08:21:26.375Z,14.3
2018-09-19T08:31:26.913Z,9.5
2018-09-19T08:41:26.709Z,12.0
2018-09-19T08:51:26.201Z,8.5
2018-09-19T09:01:27.114Z,9.1
2018-09-19T09:11:26.025Z,15.0
2018-09-19T09:21:27.348Z,13.5
2018-09-19T09:31:27.737Z,8.8
2018-09-19T09:41:26.206Z,8.4
2018-09-19T09:51:27.305Z,8.2
2018-09-19T10:01:26.262Z,8.8
2018-09-19T10:11:26.486Z,8.9
2018-09-19T10:21:25.913Z,9.2
2018-09-19T10:31:26.192Z,6.6
2018-09-19T10:41:26.302Z,6.8
2018-09-19T10:51:27.851Z,4.9
2018-09-19T11:01:26.714Z,9.1
2018-09-19T11:11:26.713Z,7.7
2018-09-19T11:21:27.314Z,8.0
2018-09-19T11:31:26.383Z,6.7
2018-09-19T11:41:26.720Z,6.6
2018-09-19T11:51:25.987Z,5.9
2018-09-19T12:01:25.998Z,10.0
2018-09-19T12:11:26.472Z,5.5
2018-09-19T12:21:27.056Z,8.2
2018-09-19T12:31:27.192Z,5.6
2018-09-19T12:41:26.528Z,6.0
2018-09-19T12:51:26.885Z,7.4
2018-09-19T13:01:27.149Z,6.8
2018-09-19T13:11:26.553Z,6.2
2018-09-19T13:21:25.963Z,5.2
2018-09-19T13:31:26.505Z,10.3
2018-09-19T13:41:28.019Z,7.6
2018-09-19T13:51:26.626Z,5.9
2018-09-19T14:01:26.582Z,10.3
2018-09-19T14:11:26.460Z,11.9
2018-09-19T14:21:25.594Z,7.7
2018-09-19T14:31:28.386Z,6.8
2018-09-19T14:41:26.799Z,6.1
2018-09-19T14:51:26.046Z,10.4
2018-09-19T15:01:26.299Z,8.9
2018-09-19T15:11:27.239Z,8.4
2018-09-19T15:21:26.925Z,7.0
2018-09-19T15:31:25.976Z,9.9
2018-09-19T15:41:26.749Z,8.0
2018-09-19T15:51:26.691Z,9.4
2018-09-19T16:01:26.295Z,8.5
2018-09-19T16:11:26.275Z,10.4
2018-09-19T16:21:26.668Z,7.3
2018-09-19T16:31:26.099Z,8.4
2018-09-19T16:41:26.159Z,7.1
2018-09-19T16:51:26.089Z,9.8
2018-09-19T17:01:26.549Z,14.2
2018-09-19T17:11:26.525Z,12.6
2018-09-19T17:21:26.733Z,11.4
2018-09-19T17:31:26.857Z,10.7
2018-09-19T17:41:27.523Z,21.0
2018-09-19T17:51:27.822Z,22.0
2018-09-19T18:01:26.823Z,25.4
2018-09-19T18:11:26.046Z,23.9
2018-09-19T18:21:27.460Z,30.9
2018-09-19T18:31:26.288Z,30.6
2018-09-19T18:41:26.349Z,24.7
2018-09-19T18:51:26.846Z,23.0
2018-09-19T19:01:25.930Z,26.9
2018-09-19T19:11:26.720Z,32.7
2018-09-19T19:21:25.937Z,29.5
2018-09-19T19:31:26.774Z,34.0
2018-09-19T19:41:26.470Z,98.6
2018-09-19T19:51:27.085Z,34.3
2018-09-19T20:01:26.176Z,35.5
2018-09-19T20:11:31.801Z,42.3
2018-09-19T20:21:26.144Z,34.9
2018-09-19T20:31:26.964Z,41.0
2018-09-19T20:41:25.849Z,35.7
2018-09-19T20:51:26.077Z,31.1
2018-09-19T21:01:26.091Z,35.9
2018-09-19T21:11:27.733Z,28.9
2018-09-19T21:21:26.253Z,33.1
2018-09-19T21:31:26.499Z,31.2
2018-09-19T21:41:27.329Z,29.4
2018-09-19T21:51:26.227Z,30.0
2018-09-19T22:01:26.707Z,28.3
2018-09-19T22:11:27.970Z,28.9
2018-09-19T22:21:26.051Z,29.5
2018-09-19T22:31:27.023Z,27.5
2018-09-19T22:41:29.481Z,28.6
2018-09-19T22:51:29.248Z,29.0
2018-09-19T23:01:27.323Z,25.3
2018-09-19T23:11:27.201Z,32.8
2018-09-19T23:21:27.250Z,29.8
2018-09-19T23:31:28.432Z,28.1
2018-09-19T23:41:27.185Z,28.8
2018-09-19T23:51:26.320Z,28.1
